Time;durP1;ratioP1;P1;durP2;ratioP2;P2;SDS_P1;SDS_P2;PMS_P1;PMS_P2;Temp;Humidity;BMP_temperature;BMP_pressure;BME280_temperature;BME280_humidity;BME280_pressure;Samples;Min_cycle;Max_cycle;Signal;HPM_P1;HPM_P2
2021/07/14 00:00:30;;;;;;;41.95;26.27;;;20.20;93.80;;;;;;4995441;28;20057;-89
2021/07/14 00:02:56;;;;;;;52.25;31.75;;;20.20;93.80;;;;;;4996021;28;20054;-90
2021/07/14 00:05:24;;;;;;;37.22;23.67;;;20.20;94.00;;;;;;4996774;28;20418;-89
2021/07/14 00:07:51;;;;;;;44.55;26.52;;;20.20;93.70;;;;;;4995812;28;20439;-89
2021/07/14 00:10:24;;;;;;;39.20;25.35;;;20.20;93.90;;;;;;4996613;28;20180;-88
2021/07/14 00:23:17;;;;;;;34.90;23.58;;;20.10;93.70;;;;;;4996355;28;20395;-89
2021/07/14 00:25:42;;;;;;;42.72;27.20;;;20.10;93.40;;;;;;4996950;28;20070;-89
2021/07/14 00:28:08;;;;;;;35.03;23.92;;;20.10;93.70;;;;;;4994186;28;20057;-89
2021/07/14 00:30:37;;;;;;;36.38;24.35;;;20.10;93.60;;;;;;4995178;28;20065;-90
2021/07/14 00:33:03;;;;;;;42.90;26.88;;;20.20;93.50;;;;;;4993963;28;20065;-90
2021/07/14 00:35:29;;;;;;;35.72;24.70;;;20.10;93.60;;;;;;4993973;28;20510;-89
2021/07/14 00:37:55;;;;;;;32.72;23.17;;;20.10;93.60;;;;;;4995215;28;20057;-90
2021/07/14 00:40:21;;;;;;;37.75;24.77;;;20.10;93.50;;;;;;4995551;28;20054;-89
2021/07/14 00:42:47;;;;;;;38.25;24.80;;;20.10;93.50;;;;;;4995074;28;20074;-89
2021/07/14 00:45:13;;;;;;;43.22;26.00;;;20.20;93.50;;;;;;4995582;28;20089;-88
2021/07/14 00:47:50;;;;;;;38.58;25.25;;;20.10;93.60;;;;;;4996187;28;20042;-88
2021/07/14 00:50:16;;;;;;;41.85;26.58;;;20.10;93.70;;;;;;4995434;28;20129;-89
2021/07/14 00:52:41;;;;;;;34.65;23.05;;;20.10;93.80;;;;;;4995817;28;20061;-88
2021/07/14 00:55:08;;;;;;;31.65;21.55;;;20.10;93.60;;;;;;4995575;28;20054;-88
2021/07/14 00:57:34;;;;;;;32.85;22.80;;;20.10;93.50;;;;;;4995373;28;20050;-89
2021/07/14 01:00:00;;;;;;;41.35;26.75;;;20.10;93.50;;;;;;4995417;28;20092;-90
2021/07/14 01:02:26;;;;;;;36.97;24.25;;;20.10;93.70;;;;;;4996480;28;20118;-90
2021/07/14 01:05:03;;;;;;;39.78;26.52;;;20.10;93.60;;;;;;4995202;28;20054;-87
2021/07/14 01:07:41;;;;;;;37.20;23.40;;;20.00;93.80;;;;;;4996376;28;20054;-89
2021/07/14 01:10:25;;;;;;;38.38;25.73;;;20.00;93.60;;;;;;4995297;28;20509;-88
2021/07/14 01:13:09;;;;;;;38.78;25.88;;;20.00;93.90;;;;;;4995362;28;20050;-89
2021/07/14 01:16:04;;;;;;;30.17;21.80;;;20.00;94.00;;;;;;4996041;28;20602;-89
2021/07/14 01:18:37;;;;;;;32.97;23.73;;;20.00;93.80;;;;;;4976870;28;20089;-89
2021/07/14 01:21:14;;;;;;;33.55;23.00;;;19.90;93.80;;;;;;4976676;28;20077;-88
2021/07/14 01:23:40;;;;;;;34.35;22.17;;;20.00;93.70;;;;;;4985702;28;20055;-89
2021/07/14 01:26:23;;;;;;;31.13;21.52;;;19.90;93.60;;;;;;4994926;28;20054;-89
2021/07/14 01:28:51;;;;;;;37.55;25.35;;;19.90;93.30;;;;;;4995790;28;20053;-90
2021/07/14 01:31:19;;;;;;;40.53;25.60;;;19.90;93.70;;;;;;4995617;28;20058;-90
2021/07/14 01:33:50;;;;;;;35.03;23.83;;;20.00;94.00;;;;;;4995900;28;20046;-90
2021/07/14 01:36:19;;;;;;;37.17;24.42;;;19.90;93.90;;;;;;4994279;28;20062;-91
2021/07/14 01:38:46;;;;;;;39.63;26.08;;;19.90;93.80;;;;;;4993693;28;20064;-88
2021/07/14 01:41:15;;;;;;;32.30;23.20;;;19.90;93.90;;;;;;4994719;28;20078;-89
2021/07/14 01:43:45;;;;;;;34.42;23.38;;;19.90;93.90;;;;;;4995286;28;20098;-89
2021/07/14 01:46:13;;;;;;;40.35;26.58;;;19.90;93.80;;;;;;4994837;28;20050;-91
2021/07/14 01:48:42;;;;;;;37.67;24.55;;;19.80;93.90;;;;;;4995845;28;20057;-91
2021/07/14 01:51:09;;;;;;;41.00;25.40;;;19.80;93.90;;;;;;4995697;28;20050;-92
2021/07/14 01:53:36;;;;;;;38.03;25.58;;;19.80;94.00;;;;;;4995741;28;20403;-91
2021/07/14 01:56:05;;;;;;;51.03;29.52;;;19.90;94.00;;;;;;4995317;28;20058;-88
2021/07/14 01:58:33;;;;;;;33.80;23.77;;;19.80;94.00;;;;;;4994815;28;20193;-92
2021/07/14 02:00:59;;;;;;;46.75;30.20;;;19.90;93.80;;;;;;4993517;28;20054;-90
2021/07/14 02:06:00;;;;;;;35.92;22.95;;;19.80;93.90;;;;;;4994960;28;20133;-89
2021/07/14 02:08:27;;;;;;;50.53;31.90;;;19.80;93.80;;;;;;4994307;28;20058;-88
2021/07/14 02:10:55;;;;;;;54.50;32.05;;;19.80;94.10;;;;;;4994663;28;20136;-90
2021/07/14 02:13:24;;;;;;;54.22;31.27;;;19.90;94.20;;;;;;4995073;28;20129;-91
2021/07/14 02:16:00;;;;;;;48.03;31.13;;;19.80;94.10;;;;;;4994749;28;20136;-91
2021/07/14 02:18:33;;;;;;;41.90;27.80;;;19.80;94.10;;;;;;4994296;28;20494;-91
2021/07/14 02:20:59;;;;;;;38.05;27.20;;;19.80;93.90;;;;;;4994450;28;20089;-91
2021/07/14 02:23:25;;;;;;;40.92;26.27;;;19.80;93.90;;;;;;4994363;28;20058;-90
2021/07/14 02:25:51;;;;;;;52.90;32.22;;;19.80;93.80;;;;;;4994580;28;20085;-92
2021/07/14 02:28:17;;;;;;;34.08;24.63;;;19.80;94.00;;;;;;4994212;28;20077;-91
2021/07/14 02:30:44;;;;;;;48.17;30.63;;;19.80;93.80;;;;;;4994588;28;20505;-92
2021/07/14 02:33:12;;;;;;;47.47;29.52;;;19.70;93.80;;;;;;4994275;28;20097;-89
2021/07/14 02:35:41;;;;;;;50.25;30.88;;;19.70;94.00;;;;;;4993023;28;20133;-89
2021/07/14 02:38:17;;;;;;;43.65;28.27;;;19.80;94.00;;;;;;4994109;28;20063;-91
2021/07/14 02:40:49;;;;;;;48.30;28.15;;;19.70;93.90;;;;;;4994877;28;20050;-90
2021/07/14 02:43:21;;;;;;;39.63;26.77;;;19.70;93.80;;;;;;4993704;28;20085;-90
2021/07/14 02:45:49;;;;;;;44.38;29.58;;;19.70;93.70;;;;;;4993806;28;20486;-91
2021/07/14 02:48:17;;;;;;;42.20;28.98;;;19.70;93.90;;;;;;4994995;28;20074;-92
2021/07/14 02:50:43;;;;;;;48.45;30.67;;;19.70;93.90;;;;;;4994117;28;20133;-93
2021/07/14 02:53:32;;;;;;;41.00;27.65;;;19.70;94.00;;;;;;4995636;28;20105;-92
2021/07/14 02:56:01;;;;;;;45.50;30.55;;;19.70;94.10;;;;;;4994563;28;20053;-91
2021/07/14 02:58:30;;;;;;;42.67;29.67;;;19.60;94.10;;;;;;4994328;28;20093;-91
2021/07/14 03:00:58;;;;;;;48.63;30.35;;;19.60;94.20;;;;;;4993569;28;20053;-92
2021/07/14 03:03:24;;;;;;;47.85;30.98;;;19.60;94.60;;;;;;4994449;28;20053;-92
2021/07/14 03:06:01;;;;;;;42.53;30.65;;;19.60;94.30;;;;;;4994123;28;20100;-90
2021/07/14 03:08:30;;;;;;;41.15;28.92;;;19.60;94.30;;;;;;4995184;28;20089;-91
2021/07/14 03:10:58;;;;;;;43.13;31.02;;;19.60;94.10;;;;;;4995017;28;20046;-92
2021/07/14 03:13:28;;;;;;;42.42;29.80;;;19.60;94.20;;;;;;4995083;28;20057;-92
2021/07/14 03:15:55;;;;;;;32.75;24.83;;;19.60;94.20;;;;;;4995504;28;20058;-92
2021/07/14 03:18:22;;;;;;;35.53;25.60;;;19.60;94.00;;;;;;4995191;28;20050;-91
2021/07/14 03:20:52;;;;;;;40.78;28.48;;;19.60;93.80;;;;;;4994887;28;20050;-90
2021/07/14 03:23:21;;;;;;;38.22;27.25;;;19.60;93.80;;;;;;4995301;28;20098;-89
2021/07/14 03:25:51;;;;;;;51.97;31.73;;;19.60;93.80;;;;;;4994813;28;20399;-92
2021/07/14 03:28:31;;;;;;;41.63;28.23;;;19.60;94.00;;;;;;4994995;28;20451;-91
2021/07/14 03:31:02;;;;;;;43.50;30.73;;;19.60;94.10;;;;;;4998932;28;20560;-92
2021/07/14 03:33:29;;;;;;;41.47;28.10;;;19.50;94.50;;;;;;4998658;28;20054;-92
2021/07/14 03:35:58;;;;;;;43.10;29.00;;;19.50;94.30;;;;;;4998247;28;20050;-89
2021/07/14 03:38:26;;;;;;;39.67;28.60;;;19.50;94.30;;;;;;4997682;28;20065;-90
2021/07/14 03:40:53;;;;;;;41.25;29.73;;;19.50;94.20;;;;;;4977657;28;20046;-89
2021/07/14 03:43:20;;;;;;;42.65;29.95;;;19.50;94.30;;;;;;4978149;28;20086;-88
2021/07/14 03:45:46;;;;;;;35.97;26.88;;;19.50;94.50;;;;;;4994843;28;20046;-91
2021/07/14 03:48:16;;;;;;;38.03;28.15;;;19.50;94.30;;;;;;4978575;28;20562;-89
2021/07/14 03:50:47;;;;;;;38.20;26.55;;;19.50;94.20;;;;;;4978490;28;20050;-88
2021/07/14 03:53:16;;;;;;;37.67;27.15;;;19.50;94.30;;;;;;4978063;28;20050;-88
2021/07/14 03:55:45;;;;;;;34.17;25.35;;;19.50;94.20;;;;;;4978908;28;20054;-90
2021/07/14 03:58:11;;;;;;;36.40;26.25;;;19.50;94.10;;;;;;4980003;28;20402;-90
2021/07/14 04:00:37;;;;;;;40.05;28.15;;;19.50;94.10;;;;;;4998121;28;20046;-90
2021/07/14 04:03:03;;;;;;;38.05;26.58;;;19.40;94.00;;;;;;4997606;28;20453;-91
2021/07/14 04:05:31;;;;;;;46.50;29.52;;;19.50;94.10;;;;;;4997308;28;20065;-88
2021/07/14 04:07:57;;;;;;;42.90;28.58;;;19.40;94.30;;;;;;4996580;28;20058;-91
2021/07/14 04:10:23;;;;;;;41.92;28.67;;;19.40;94.20;;;;;;4997199;28;20113;-90
2021/07/14 04:12:49;;;;;;;37.53;25.95;;;19.50;94.40;;;;;;4996043;28;20050;-90
2021/07/14 04:15:15;;;;;;;38.00;27.08;;;19.40;94.10;;;;;;4996381;28;20089;-92
2021/07/14 04:17:41;;;;;;;38.22;27.30;;;19.50;94.20;;;;;;4997782;28;20054;-92
2021/07/14 04:20:07;;;;;;;35.45;26.25;;;19.50;94.20;;;;;;4997631;28;20054;-92
2021/07/14 04:22:33;;;;;;;39.58;27.77;;;19.40;94.00;;;;;;4997348;28;20129;-91
2021/07/14 04:24:59;;;;;;;38.38;25.65;;;19.50;94.20;;;;;;4996933;28;20096;-92
2021/07/14 04:27:26;;;;;;;38.33;26.45;;;19.50;94.10;;;;;;4998862;28;20050;-91
2021/07/14 04:29:51;;;;;;;37.40;26.60;;;19.50;94.10;;;;;;4998480;28;20593;-93
2021/07/14 04:32:17;;;;;;;33.58;24.90;;;19.50;94.20;;;;;;4998141;28;20074;-92
2021/07/14 04:34:49;;;;;;;40.53;26.48;;;19.50;94.00;;;;;;4997153;28;20105;-90
2021/07/14 04:37:20;;;;;;;40.95;29.63;;;19.50;94.00;;;;;;4996978;28;20134;-91
2021/07/14 04:39:46;;;;;;;43.83;28.40;;;19.50;94.20;;;;;;4995698;28;20133;-87
2021/07/14 04:42:21;;;;;;;36.90;26.25;;;19.50;94.20;;;;;;4996730;28;20153;-90
2021/07/14 04:44:51;;;;;;;43.70;27.65;;;19.50;94.10;;;;;;4996730;28;20050;-88
2021/07/14 04:47:18;;;;;;;44.72;30.08;;;19.50;94.10;;;;;;4996334;28;20057;-90
2021/07/14 04:49:46;;;;;;;36.97;25.88;;;19.50;94.20;;;;;;4995719;28;20521;-89
2021/07/14 04:52:17;;;;;;;41.70;28.67;;;19.50;94.00;;;;;;4996416;28;20081;-91
2021/07/14 04:54:54;;;;;;;38.75;26.60;;;19.50;94.20;;;;;;4995940;28;20054;-91
2021/07/14 04:57:20;;;;;;;47.00;28.23;;;19.50;94.20;;;;;;4995263;28;20054;-91
2021/07/14 04:59:47;;;;;;;43.10;28.92;;;19.50;94.30;;;;;;4993591;28;20105;-91
2021/07/14 05:02:12;;;;;;;40.30;26.23;;;19.50;94.40;;;;;;4995520;28;20457;-92
2021/07/14 05:04:38;;;;;;;41.17;27.38;;;19.50;94.30;;;;;;4996190;28;20054;-88
2021/07/14 05:07:04;;;;;;;35.58;25.00;;;19.40;94.20;;;;;;4995607;28;20112;-91
2021/07/14 05:09:32;;;;;;;40.63;27.27;;;19.40;94.00;;;;;;4995240;28;20050;-90
2021/07/14 05:12:00;;;;;;;35.35;23.60;;;19.50;94.10;;;;;;4994836;28;20405;-91
2021/07/14 05:14:26;;;;;;;34.72;24.10;;;19.50;93.90;;;;;;4995501;28;20050;-89
2021/07/14 05:16:57;;;;;;;37.60;25.52;;;19.50;93.80;;;;;;4994923;28;20517;-89
2021/07/14 05:19:23;;;;;;;45.35;27.92;;;19.50;93.90;;;;;;4995378;28;20107;-91
2021/07/14 05:21:50;;;;;;;34.00;25.02;;;19.50;94.10;;;;;;4996142;28;20050;-90
2021/07/14 05:24:19;;;;;;;39.88;26.55;;;19.50;94.00;;;;;;4995650;28;20049;-93
2021/07/14 05:26:47;;;;;;;41.05;27.45;;;19.50;94.00;;;;;;4995637;28;20057;-91
2021/07/14 05:29:12;;;;;;;33.55;24.33;;;19.50;94.20;;;;;;4996239;28;20487;-90
2021/07/14 05:31:38;;;;;;;37.83;23.73;;;19.50;94.10;;;;;;4995546;28;20057;-91
2021/07/14 05:34:04;;;;;;;32.05;24.13;;;19.50;93.90;;;;;;4995401;28;20145;-91
2021/07/14 05:36:30;;;;;;;33.65;24.80;;;19.50;93.90;;;;;;4995651;28;20517;-91
2021/07/14 05:38:58;;;;;;;34.60;24.75;;;19.50;93.90;;;;;;4994741;28;20050;-91
2021/07/14 05:41:30;;;;;;;42.28;26.10;;;19.50;93.90;;;;;;4995611;28;20158;-90
2021/07/14 05:44:05;;;;;;;38.28;25.20;;;19.50;94.10;;;;;;4995427;28;20510;-88
2021/07/14 05:46:42;;;;;;;38.50;25.55;;;19.50;94.10;;;;;;4995713;28;20054;-92
2021/07/14 05:49:08;;;;;;;28.55;23.25;;;19.50;94.30;;;;;;4996029;28;20449;-89
2021/07/14 05:51:40;;;;;;;36.05;25.38;;;19.50;94.20;;;;;;4993829;28;20050;-83
2021/07/14 05:54:14;;;;;;;35.58;22.98;;;19.50;94.30;;;;;;4993657;28;20097;-83
2021/07/14 05:56:48;;;;;;;30.95;23.10;;;19.50;94.30;;;;;;4994094;28;20050;-84
2021/07/14 05:59:14;;;;;;;32.80;22.55;;;19.50;94.40;;;;;;4994031;28;20078;-83
2021/07/14 06:01:40;;;;;;;29.65;20.80;;;19.50;94.30;;;;;;4997173;28;20046;-88
2021/07/14 06:04:05;;;;;;;28.70;21.20;;;19.50;94.20;;;;;;4995801;28;20046;-87
2021/07/14 06:06:32;;;;;;;27.52;20.65;;;19.50;94.20;;;;;;4993854;28;20046;-90
2021/07/14 06:08:58;;;;;;;26.35;20.67;;;19.50;94.20;;;;;;4990053;28;20486;-89
2021/07/14 06:11:24;;;;;;;29.38;20.73;;;19.50;94.20;;;;;;5009444;28;20458;-89
2021/07/14 06:13:51;;;;;;;26.88;20.40;;;19.60;94.30;;;;;;4996120;28;20042;-92
2021/07/14 06:16:19;;;;;;;25.23;19.65;;;19.60;94.20;;;;;;4996065;28;20046;-91
2021/07/14 06:18:45;;;;;;;28.77;20.02;;;19.60;94.10;;;;;;4995616;28;20050;-93
2021/07/14 06:21:11;;;;;;;25.13;19.08;;;19.60;94.20;;;;;;4995895;28;20058;-92
2021/07/14 06:23:37;;;;;;;25.90;18.90;;;19.60;94.20;;;;;;4996228;28;20101;-94
2021/07/14 06:26:03;;;;;;;24.13;18.42;;;19.60;94.30;;;;;;4996317;28;20101;-92
2021/07/14 06:28:28;;;;;;;26.98;19.65;;;19.60;94.20;;;;;;4995490;28;20073;-88
2021/07/14 06:30:54;;;;;;;26.50;19.23;;;19.60;94.20;;;;;;4995565;28;20482;-93
2021/07/14 06:33:22;;;;;;;24.55;19.38;;;19.60;94.20;;;;;;4994613;28;20077;-89
2021/07/14 06:35:49;;;;;;;27.95;18.80;;;19.60;94.10;;;;;;4995091;28;20062;-90
2021/07/14 06:38:15;;;;;;;25.67;17.48;;;19.60;94.20;;;;;;4996419;28;20065;-92
2021/07/14 06:40:41;;;;;;;23.58;17.52;;;19.70;94.20;;;;;;4995915;28;20058;-87
2021/07/14 06:43:13;;;;;;;23.17;17.30;;;19.70;94.10;;;;;;4994935;28;20050;-91
2021/07/14 06:45:39;;;;;;;26.50;17.23;;;19.70;94.10;;;;;;4994526;28;20054;-93
2021/07/14 06:48:05;;;;;;;25.08;17.10;;;19.70;94.10;;;;;;5010929;28;20188;-93
2021/07/14 06:50:30;;;;;;;25.15;17.13;;;19.70;94.10;;;;;;5015601;28;20057;-93
2021/07/14 06:52:56;;;;;;;22.13;15.73;;;19.80;94.30;;;;;;4995361;28;20129;-92
2021/07/14 06:55:22;;;;;;;23.05;17.17;;;19.80;94.30;;;;;;4995562;28;20054;-91
2021/07/14 06:57:48;;;;;;;20.58;15.77;;;19.80;94.40;;;;;;4993922;28;20046;-93
2021/07/14 07:00:14;;;;;;;23.40;15.70;;;19.90;94.30;;;;;;5006810;28;20133;-92
2021/07/14 07:02:40;;;;;;;24.15;15.70;;;19.90;94.20;;;;;;5003712;28;20054;-91
2021/07/14 07:05:07;;;;;;;20.77;15.20;;;20.00;94.30;;;;;;5007067;28;20054;-92
2021/07/14 07:07:33;;;;;;;19.23;14.70;;;20.00;94.10;;;;;;5015737;28;20042;-92
2021/07/14 07:09:59;;;;;;;19.92;14.48;;;20.10;94.10;;;;;;4988050;28;20049;-89
2021/07/14 07:12:25;;;;;;;18.38;14.50;;;20.10;94.00;;;;;;4988662;28;20495;-91
2021/07/14 07:14:50;;;;;;;22.13;14.82;;;20.10;94.00;;;;;;5012004;28;20474;-91
2021/07/14 07:17:17;;;;;;;20.77;14.00;;;20.10;94.00;;;;;;5001700;28;20053;-91
2021/07/14 07:19:42;;;;;;;20.05;14.00;;;20.20;94.00;;;;;;5014867;28;20043;-92
2021/07/14 07:22:08;;;;;;;18.00;13.90;;;20.20;93.90;;;;;;4998898;28;20101;-90
2021/07/14 07:24:34;;;;;;;21.00;14.15;;;20.20;93.90;;;;;;4999727;28;20050;-91
2021/07/14 07:27:00;;;;;;;19.65;13.43;;;20.30;94.00;;;;;;4991664;28;20487;-88
2021/07/14 07:29:26;;;;;;;19.58;14.57;;;20.30;93.80;;;;;;4999114;28;20445;-89
2021/07/14 07:31:51;;;;;;;21.40;13.48;;;20.40;93.80;;;;;;4997450;28;20054;-89
2021/07/14 07:34:19;;;;;;;19.58;13.75;;;20.40;93.70;;;;;;5006748;28;20042;-92
2021/07/14 07:36:46;;;;;;;19.38;13.95;;;20.40;93.70;;;;;;4995086;28;20473;-91
2021/07/14 07:39:14;;;;;;;17.50;13.80;;;20.50;93.70;;;;;;5000324;28;20450;-89
2021/07/14 07:41:40;;;;;;;20.23;13.95;;;20.50;93.60;;;;;;5000314;28;20490;-90
2021/07/14 07:44:09;;;;;;;22.65;13.88;;;20.50;93.60;;;;;;4998938;28;20121;-89
2021/07/14 07:46:36;;;;;;;20.35;14.45;;;20.60;93.70;;;;;;5009252;28;20054;-92
2021/07/14 07:49:03;;;;;;;19.33;14.07;;;20.60;93.50;;;;;;5001895;28;20096;-89
2021/07/14 07:51:29;;;;;;;17.13;13.20;;;20.60;93.40;;;;;;5013499;28;20506;-87
2021/07/14 07:53:56;;;;;;;22.15;14.82;;;20.70;93.50;;;;;;5003767;28;20053;-89
2021/07/14 07:56:22;;;;;;;20.63;14.90;;;20.70;93.50;;;;;;4996752;28;20050;-89
2021/07/14 07:58:48;;;;;;;17.83;13.98;;;20.70;93.50;;;;;;5006184;28;20401;-89
2021/07/14 08:01:13;;;;;;;17.17;14.05;;;20.80;93.50;;;;;;4995786;28;20482;-91
2021/07/14 08:03:43;;;;;;;16.10;14.15;;;20.80;93.60;;;;;;5013676;28;20054;-94
2021/07/14 08:06:09;;;;;;;20.15;13.77;;;20.80;93.50;;;;;;4998385;28;20479;-93
2021/07/14 08:08:35;;;;;;;21.27;15.00;;;20.80;93.40;;;;;;5012929;28;20156;-96
2021/07/14 08:11:08;;;;;;;19.40;13.90;;;20.90;93.50;;;;;;5004128;28;20053;-93
2021/07/14 08:13:34;;;;;;;;;;;20.90;93.40;;;;;;5005989;28;20104;-93
2021/07/14 08:16:02;;;;;;;19.02;13.60;;;20.90;93.40;;;;;;5007603;28;19925;-84
2021/07/14 08:18:27;;;;;;;17.70;13.32;;;20.90;93.50;;;;;;5000983;28;20134;-95
2021/07/14 08:20:54;;;;;;;18.92;13.75;;;20.90;93.50;;;;;;4998019;28;20089;-93
2021/07/14 08:23:21;;;;;;;17.90;13.80;;;21.00;93.40;;;;;;4999054;28;20105;-93
2021/07/14 08:25:47;;;;;;;19.25;13.82;;;21.00;93.40;;;;;;5001374;28;20581;-96
2021/07/14 08:28:13;;;;;;;19.25;14.23;;;21.00;93.40;;;;;;5000498;28;20450;-96
2021/07/14 08:30:40;;;;;;;17.65;13.18;;;21.10;93.40;;;;;;5000326;28;20046;-96
2021/07/14 08:33:06;;;;;;;18.20;14.13;;;21.10;93.40;;;;;;4999349;28;20046;-92
2021/07/14 08:35:31;;;;;;;19.23;14.88;;;21.10;93.20;;;;;;4998341;28;20062;-92
2021/07/14 08:37:57;;;;;;;19.13;14.27;;;21.10;93.20;;;;;;4997836;28;20407;-91
2021/07/14 08:40:24;;;;;;;18.63;14.15;;;21.20;93.20;;;;;;4998450;28;20058;-90
2021/07/14 08:42:53;;;;;;;22.88;14.52;;;21.20;93.20;;;;;;4998002;28;20061;-94
2021/07/14 08:45:20;;;;;;;18.50;14.52;;;21.20;93.20;;;;;;4998804;28;20058;-95
2021/07/14 08:47:47;;;;;;;20.10;14.93;;;21.20;93.20;;;;;;4997831;28;20594;-94
2021/07/14 08:50:14;;;;;;;18.38;14.15;;;21.20;93.10;;;;;;4997667;28;20066;-94
2021/07/14 08:52:42;;;;;;;16.73;13.75;;;21.20;93.10;;;;;;4998451;28;20049;-92
2021/07/14 08:55:12;;;;;;;19.20;14.40;;;21.30;93.20;;;;;;4996348;28;20050;-90
2021/07/14 08:57:38;;;;;;;19.02;14.32;;;21.30;93.20;;;;;;4986636;28;20054;-91
2021/07/14 09:00:11;;;;;;;20.58;14.65;;;21.30;93.10;;;;;;4988618;28;20503;-94
2021/07/14 09:02:41;;;;;;;22.73;15.25;;;21.40;93.10;;;;;;4996364;28;20050;-86
2021/07/14 09:05:09;;;;;;;18.42;15.20;;;21.40;93.10;;;;;;4997186;28;20066;-91
2021/07/14 09:07:39;;;;;;;21.45;15.80;;;21.40;93.00;;;;;;4997759;28;20047;-89
2021/07/14 09:10:09;;;;;;;22.05;15.98;;;21.40;92.90;;;;;;4996062;28;20498;-90
2021/07/14 09:12:37;;;;;;;20.30;16.48;;;21.50;93.00;;;;;;4997158;28;20057;-87
2021/07/14 09:15:21;;;;;;;22.45;16.77;;;21.50;93.00;;;;;;4996679;28;20081;-93
2021/07/14 09:17:55;;;;;;;19.88;16.50;;;21.50;93.00;;;;;;4996633;28;20414;-93
2021/07/14 09:20:30;;;;;;;21.20;17.13;;;21.50;93.00;;;;;;4977694;28;20126;-90
2021/07/14 09:23:16;;;;;;;19.15;16.45;;;21.60;92.90;;;;;;4977356;28;20125;-91
2021/07/14 09:25:49;;;;;;;23.48;16.70;;;21.60;92.90;;;;;;4977631;28;20050;-91
2021/07/14 09:28:19;;;;;;;22.27;17.63;;;21.60;92.80;;;;;;4977432;28;20105;-92
2021/07/14 09:30:58;;;;;;;21.58;17.08;;;21.60;92.80;;;;;;4976836;28;20046;-94
2021/07/14 09:33:25;;;;;;;21.33;16.98;;;21.70;92.80;;;;;;4977326;28;20158;-90
2021/07/14 09:35:52;;;;;;;20.98;18.75;;;21.70;92.80;;;;;;4976808;28;20402;-89
2021/07/14 09:38:24;;;;;;;20.48;16.38;;;21.70;92.80;;;;;;4936595;29;20051;-91
2021/07/14 09:40:53;;;;;;;20.02;17.85;;;21.70;92.90;;;;;;4953148;29;20110;-94
2021/07/14 09:43:21;;;;;;;20.95;16.73;;;21.80;92.80;;;;;;4939247;29;20107;-92
2021/07/14 09:45:59;;;;;;;19.65;16.23;;;21.80;92.70;;;;;;4937715;29;20426;-92
2021/07/14 09:48:26;;;;;;;19.80;17.10;;;21.90;92.70;;;;;;4938562;29;20048;-91
2021/07/14 09:51:06;;;;;;;21.10;17.50;;;21.90;92.60;;;;;;4937992;29;20075;-92
2021/07/14 09:53:34;;;;;;;20.13;16.25;;;21.90;92.60;;;;;;4937672;29;20043;-91
2021/07/14 09:56:14;;;;;;;21.45;17.20;;;21.90;92.70;;;;;;4938178;29;20055;-91
2021/07/14 09:58:40;;;;;;;20.17;17.05;;;21.90;92.50;;;;;;4940087;29;20052;-90
2021/07/14 10:01:10;;;;;;;19.30;15.95;;;22.00;92.50;;;;;;4938180;29;20122;-89
2021/07/14 10:03:37;;;;;;;20.45;16.40;;;22.00;92.50;;;;;;4938122;29;20058;-90
2021/07/14 10:06:05;;;;;;;22.35;14.70;;;22.00;92.40;;;;;;4937310;29;20051;-91
2021/07/14 10:08:32;;;;;;;17.85;15.30;;;22.10;92.30;;;;;;4937714;29;20080;-89
2021/07/14 10:11:23;;;;;;;19.80;14.85;;;22.10;92.30;;;;;;4937569;29;20048;-90
2021/07/14 10:14:03;;;;;;;22.08;15.13;;;22.10;92.10;;;;;;4937413;29;20051;-92
2021/07/14 10:16:35;;;;;;;21.27;15.73;;;22.10;92.10;;;;;;4937441;29;20488;-90
2021/07/14 10:19:16;;;;;;;18.70;15.68;;;22.20;92.30;;;;;;4944918;29;20055;-91
2021/07/14 10:21:55;;;;;;;21.73;16.00;;;22.20;92.10;;;;;;4958038;28;20098;-90
2021/07/14 10:24:23;;;;;;;23.25;15.50;;;22.20;92.10;;;;;;4955878;29;20135;-88
2021/07/14 10:26:53;;;;;;;20.48;14.55;;;22.30;92.10;;;;;;4955731;28;20062;-91
2021/07/14 10:29:21;;;;;;;19.85;16.40;;;22.20;92.10;;;;;;4956524;28;20122;-89
2021/07/14 10:31:49;;;;;;;22.25;16.58;;;22.30;92.50;;;;;;4956206;29;20047;-89
2021/07/14 10:34:20;;;;;;;27.92;18.80;;;22.30;92.10;;;;;;4956027;28;20055;-89
2021/07/14 10:36:54;;;;;;;26.58;18.88;;;22.30;92.00;;;;;;4970177;28;20502;-91
2021/07/14 10:39:29;;;;;;;28.50;20.25;;;22.30;92.30;;;;;;4995719;28;20046;-91
2021/07/14 10:41:56;;;;;;;25.10;18.42;;;22.30;92.00;;;;;;4995128;28;20065;-89
2021/07/14 10:44:23;;;;;;;25.48;19.15;;;22.30;92.00;;;;;;4987390;28;20495;-90
2021/07/14 10:46:49;;;;;;;30.17;21.38;;;22.30;92.00;;;;;;4975769;28;20106;-90
2021/07/14 10:49:24;;;;;;;27.88;20.85;;;22.30;91.90;;;;;;4990067;28;20051;-92
2021/07/14 10:51:50;;;;;;;31.80;22.23;;;22.30;91.70;;;;;;5002679;28;20516;-91
2021/07/14 10:54:27;;;;;;;36.30;23.10;;;22.20;91.60;;;;;;5015388;28;20050;-89
2021/07/14 10:56:53;;;;;;;31.73;22.33;;;22.20;91.40;;;;;;5014505;28;20448;-92
2021/07/14 10:59:21;;;;;;;31.75;22.45;;;22.10;91.50;;;;;;5015004;28;20133;-90
2021/07/14 11:01:55;;;;;;;29.83;20.80;;;22.10;91.60;;;;;;4996137;28;20053;-91
2021/07/14 11:04:26;;;;;;;28.17;20.92;;;22.10;91.70;;;;;;4994772;28;20050;-92
2021/07/14 11:07:10;;;;;;;29.23;20.75;;;22.10;91.70;;;;;;4994864;28;20046;-93
2021/07/14 11:09:41;;;;;;;31.27;22.08;;;22.00;91.70;;;;;;4993954;28;20437;-93
2021/07/14 11:12:09;;;;;;;28.25;21.25;;;22.00;91.70;;;;;;4995120;28;20050;-94
2021/07/14 11:14:56;;;;;;;30.65;22.15;;;22.00;91.70;;;;;;4995566;28;20042;-92
2021/07/14 11:17:43;;;;;;;27.15;20.77;;;22.00;91.60;;;;;;4992640;28;20052;-91
2021/07/14 11:20:15;;;;;;;31.63;21.40;;;22.00;91.70;;;;;;5011749;28;20061;-92
2021/07/14 11:22:53;;;;;;;24.73;20.13;;;22.00;91.80;;;;;;4996722;28;20054;-96
2021/07/14 11:25:27;;;;;;;26.60;20.33;;;22.00;91.90;;;;;;4990953;28;20351;-92
2021/07/14 11:28:08;;;;;;;27.27;19.55;;;22.10;91.70;;;;;;5001115;28;20046;-91
2021/07/14 11:30:42;;;;;;;27.40;19.65;;;22.10;91.70;;;;;;4993795;28;20060;-92
2021/07/14 11:33:10;;;;;;;24.92;19.45;;;22.10;91.40;;;;;;4992953;28;20047;-89
2021/07/14 11:35:40;;;;;;;27.02;19.40;;;22.10;91.40;;;;;;4997628;28;20100;-89
2021/07/14 11:38:14;;;;;;;23.77;18.98;;;22.10;91.60;;;;;;4994138;28;20516;-83
2021/07/14 11:40:43;;;;;;;24.88;19.27;;;22.10;91.70;;;;;;5011628;28;20126;-82
2021/07/14 11:43:14;;;;;;;25.48;19.00;;;22.20;91.80;;;;;;4997497;28;20050;-92
2021/07/14 11:45:48;;;;;;;27.38;19.40;;;22.20;91.70;;;;;;5005796;28;20387;-95
2021/07/14 11:48:21;;;;;;;26.55;19.50;;;22.20;91.50;;;;;;4997253;28;20096;-93
2021/07/14 11:50:49;;;;;;;27.40;19.52;;;22.20;91.60;;;;;;5002910;28;20062;-94
2021/07/14 11:53:30;;;;;;;24.17;19.80;;;22.30;91.50;;;;;;5003987;28;20077;-95
2021/07/14 11:56:28;;;;;;;23.27;18.08;;;22.30;91.40;;;;;;5021320;28;20089;-93
2021/07/14 11:59:09;;;;;;;23.83;18.50;;;22.30;91.40;;;;;;4998545;28;20508;-91
2021/07/14 12:01:35;;;;;;;24.38;18.17;;;22.40;91.50;;;;;;5006776;28;20046;-89
2021/07/14 12:04:00;;;;;;;24.50;19.30;;;22.40;91.50;;;;;;5007548;28;20136;-91
2021/07/14 12:06:36;;;;;;;22.48;17.65;;;22.40;91.40;;;;;;5016113;28;20106;-92
2021/07/14 12:09:17;;;;;;;26.02;19.35;;;22.40;91.40;;;;;;5001190;28;20414;-90
2021/07/14 12:11:43;;;;;;;22.52;18.02;;;22.40;91.20;;;;;;5007870;28;20478;-91
2021/07/14 12:14:10;;;;;;;28.17;19.20;;;22.40;91.40;;;;;;5009017;28;20056;-93
2021/07/14 12:16:36;;;;;;;24.50;18.58;;;22.40;91.40;;;;;;5000586;28;20521;-90
2021/07/14 12:19:02;;;;;;;27.75;18.58;;;22.50;91.40;;;;;;5012897;28;20046;-91
2021/07/14 12:21:35;;;;;;;26.65;19.02;;;22.50;91.40;;;;;;5004674;28;20053;-89
2021/07/14 12:24:01;;;;;;;24.08;18.38;;;22.60;91.40;;;;;;4999606;28;20101;-91
2021/07/14 12:26:27;;;;;;;27.52;18.35;;;22.60;91.40;;;;;;4994474;28;20058;-89
2021/07/14 12:28:53;;;;;;;25.02;18.20;;;22.70;91.40;;;;;;4994407;28;20054;-88
2021/07/14 12:31:19;;;;;;;24.45;17.67;;;22.80;91.40;;;;;;5000537;28;20108;-89
2021/07/14 12:33:51;;;;;;;22.88;16.10;;;22.80;91.20;;;;;;5002100;28;20133;-89
2021/07/14 12:36:17;;;;;;;26.10;17.48;;;22.90;91.20;;;;;;4996288;28;20054;-90
2021/07/14 12:38:57;;;;;;;24.13;15.65;;;22.90;91.30;;;;;;5006200;28;20050;-90
2021/07/14 12:41:24;;;;;;;22.13;15.25;;;23.00;91.20;;;;;;5009044;28;20046;-89
2021/07/14 12:44:07;;;;;;;21.95;15.75;;;23.00;91.30;;;;;;5001153;28;20097;-90
2021/07/14 12:46:38;;;;;;;20.80;14.23;;;23.10;91.30;;;;;;4996381;28;20108;-89
2021/07/14 12:49:09;;;;;;;17.23;13.27;;;23.10;91.10;;;;;;4983896;28;20049;-90
2021/07/14 12:51:34;;;;;;;15.27;12.63;;;23.20;90.90;;;;;;5007716;28;20146;-92